Time;durP1;ratioP1;P1;durP2;ratioP2;P2;SDS_P1;SDS_P2;PMS_P1;PMS_P2;Temp;Humidity;BMP_temperature;BMP_pressure;BME280_temperature;BME280_humidity;BME280_pressure;Samples;Min_cycle;Max_cycle;Signal;HPM_P1;HPM_P2
2023/12/29 00:04:34;;;;;;;4.50;1.48;;;11.70;90.50;;;;;;10141864;28;20216;-66
2023/12/29 00:09:47;;;;;;;5.35;1.25;;;11.70;90.70;;;;;;10058574;28;20225;-66
2023/12/29 00:15:23;;;;;;;7.00;1.38;;;11.70;91.00;;;;;;10033880;28;20791;-64
2023/12/29 00:20:30;;;;;;;4.30;1.27;;;11.70;90.50;;;;;;10066756;28;20940;-66
2023/12/29 00:25:45;;;;;;;3.60;1.38;;;11.70;90.50;;;;;;10058143;28;20198;-64
2023/12/29 00:31:00;;;;;;;6.53;1.80;;;11.70;90.90;;;;;;9993396;28;20262;-65
2023/12/29 00:36:07;;;;;;;5.93;1.43;;;11.70;90.70;;;;;;10042791;28;20282;-64
2023/12/29 00:41:16;;;;;;;4.28;1.38;;;11.70;91.00;;;;;;10104366;28;20299;-66
2023/12/29 00:46:20;;;;;;;4.22;1.42;;;11.70;90.60;;;;;;10127586;28;20668;-65
2023/12/29 00:51:27;;;;;;;5.93;1.17;;;11.80;90.60;;;;;;10140580;28;20297;-65
2023/12/29 00:56:32;;;;;;;5.05;1.40;;;11.80;90.50;;;;;;10130024;28;20235;-65
2023/12/29 01:01:55;;;;;;;4.57;1.38;;;11.80;90.60;;;;;;10145593;28;20696;-63
2023/12/29 01:07:31;;;;;;;4.88;1.20;;;11.80;90.80;;;;;;10135615;28;21125;-63
2023/12/29 01:12:36;;;;;;;8.07;1.75;;;11.80;90.80;;;;;;10152718;28;20221;-64
2023/12/29 01:17:48;;;;;;;3.90;1.17;;;11.80;90.60;;;;;;10142172;28;20619;-66
2023/12/29 01:23:11;;;;;;;6.33;1.10;;;11.80;90.50;;;;;;10085680;28;20244;-67
2023/12/29 01:28:19;;;;;;;4.85;1.58;;;11.80;90.80;;;;;;10180376;28;20487;-67
2023/12/29 01:33:35;;;;;;;8.02;1.48;;;11.80;90.60;;;;;;10108390;28;20778;-66
2023/12/29 01:38:41;;;;;;;5.40;1.17;;;11.80;90.60;;;;;;10156458;28;20205;-65
2023/12/29 01:44:29;;;;;;;5.75;1.42;;;11.80;90.80;;;;;;10145767;28;20796;-65
2023/12/29 01:49:36;;;;;;;7.10;1.70;;;11.80;91.00;;;;;;10130378;28;20240;-65
2023/12/29 01:54:49;;;;;;;5.95;1.60;;;11.80;91.00;;;;;;10119517;28;20292;-63
2023/12/29 02:00:22;;;;;;;7.00;1.85;;;11.80;90.90;;;;;;10163094;28;20664;-64
2023/12/29 02:05:39;;;;;;;8.83;1.50;;;11.70;91.40;;;;;;10140360;28;20260;-64
2023/12/29 02:10:44;;;;;;;7.03;1.63;;;11.70;91.70;;;;;;10132563;28;20247;-66
2023/12/29 02:15:49;;;;;;;5.73;1.67;;;11.60;92.40;;;;;;10112655;28;20719;-65
2023/12/29 02:21:31;;;;;;;4.38;1.65;;;11.60;92.40;;;;;;10115864;28;22990;-66
2023/12/29 02:26:38;;;;;;;8.18;2.67;;;11.50;93.00;;;;;;10094730;28;20675;-64
2023/12/29 02:31:46;;;;;;;7.53;2.37;;;11.40;93.90;;;;;;10137881;28;20309;-63
2023/12/29 02:37:20;;;;;;;8.70;2.05;;;11.40;94.10;;;;;;10113180;28;20286;-65
2023/12/29 02:42:30;;;;;;;8.90;2.78;;;11.30;94.70;;;;;;10141452;28;20501;-64
2023/12/29 02:48:13;;;;;;;7.73;1.97;;;11.20;94.90;;;;;;10121624;28;20243;-64
2023/12/29 02:54:02;;;;;;;7.47;2.10;;;11.10;94.80;;;;;;10175842;28;20573;-64
2023/12/29 02:59:28;;;;;;;7.78;2.70;;;11.10;95.60;;;;;;10175279;28;20192;-64
2023/12/29 03:04:35;;;;;;;8.27;2.73;;;11.00;96.10;;;;;;10232116;28;20700;-64
2023/12/29 03:10:09;;;;;;;6.63;2.03;;;10.90;96.00;;;;;;10142913;28;20661;-64
2023/12/29 03:15:38;;;;;;;8.20;2.30;;;10.90;96.20;;;;;;10174423;28;20247;-66
2023/12/29 03:20:48;;;;;;;12.10;2.40;;;10.90;96.50;;;;;;10129606;28;20236;-63
2023/12/29 03:26:06;;;;;;;5.27;1.80;;;10.90;96.30;;;;;;10134273;28;20333;-65
2023/12/29 03:31:12;;;;;;;9.75;2.40;;;10.90;96.50;;;;;;10124405;28;20251;-64
2023/12/29 03:36:29;;;;;;;7.63;2.53;;;11.00;96.60;;;;;;10127113;28;20242;-65
2023/12/29 03:41:48;;;;;;;9.77;2.57;;;11.00;96.70;;;;;;10115756;28;20251;-64
2023/12/29 03:47:26;;;;;;;9.30;2.40;;;11.00;97.00;;;;;;10174810;28;20266;-67
2023/12/29 03:52:57;;;;;;;6.17;2.03;;;11.00;97.00;;;;;;10106467;28;20290;-64
2023/12/29 03:58:20;;;;;;;5.87;1.63;;;11.00;96.80;;;;;;10084895;28;20236;-65
2023/12/29 04:03:26;;;;;;;6.83;1.80;;;11.00;96.90;;;;;;10141630;28;20271;-63
2023/12/29 04:08:30;;;;;;;6.40;1.90;;;11.00;96.80;;;;;;10195569;28;20275;-63
2023/12/29 04:19:41;;;;;;;5.73;2.00;;;11.10;96.50;;;;;;10155368;28;20303;-66
2023/12/29 04:24:59;;;;;;;7.97;2.00;;;11.10;97.00;;;;;;10105644;28;22080;-66
2023/12/29 04:30:18;;;;;;;5.67;1.80;;;11.10;96.50;;;;;;10092856;28;20393;-65
2023/12/29 04:35:26;;;;;;;6.53;1.53;;;11.10;96.40;;;;;;10133532;28;21116;-67
2023/12/29 04:41:01;;;;;;;6.90;1.50;;;11.10;96.40;;;;;;10096956;28;21196;-64
2023/12/29 04:46:25;;;;;;;7.07;2.27;;;11.20;96.40;;;;;;10128812;28;20723;-63
2023/12/29 04:51:48;;;;;;;7.77;2.13;;;11.20;96.50;;;;;;10104475;28;20355;-64
2023/12/29 04:56:52;;;;;;;8.17;1.90;;;11.20;96.10;;;;;;10124354;28;20232;-66
2023/12/29 05:02:06;;;;;;;5.43;1.50;;;11.30;96.30;;;;;;10106461;28;20252;-64
2023/12/29 05:07:43;;;;;;;5.00;1.50;;;11.30;96.00;;;;;;10108018;28;20232;-65
2023/12/29 05:12:58;;;;;;;5.83;1.87;;;11.30;95.90;;;;;;10156485;28;20248;-64
2023/12/29 05:18:20;;;;;;;7.13;1.33;;;11.30;95.80;;;;;;10149682;28;20200;-63
2023/12/29 05:23:37;;;;;;;8.20;1.90;;;11.30;95.70;;;;;;10153023;28;20236;-66
2023/12/29 05:28:41;;;;;;;8.47;1.57;;;11.30;95.90;;;;;;10164716;28;20365;-65
2023/12/29 05:33:46;;;;;;;6.17;1.90;;;11.30;96.00;;;;;;10209189;28;20220;-64
2023/12/29 05:39:29;;;;;;;6.03;1.57;;;11.30;95.80;;;;;;10124761;28;20288;-66
2023/12/29 05:44:56;;;;;;;6.30;1.50;;;11.30;95.50;;;;;;10114343;28;20346;-64
2023/12/29 05:50:19;;;;;;;7.53;2.13;;;11.30;95.10;;;;;;10112753;28;20235;-63
2023/12/29 05:55:30;;;;;;;6.03;1.90;;;11.30;95.10;;;;;;10132660;28;20330;-65
2023/12/29 06:00:46;;;;;;;5.72;1.20;;;11.30;94.80;;;;;;10140850;28;20248;-65
2023/12/29 06:06:11;;;;;;;6.90;2.00;;;11.30;94.70;;;;;;10137544;28;20411;-65
2023/12/29 06:11:18;;;;;;;4.45;1.40;;;11.40;94.90;;;;;;10147747;28;20693;-65
2023/12/29 06:16:44;;;;;;;7.07;1.50;;;11.40;94.70;;;;;;10115287;28;20909;-63
2023/12/29 06:22:00;;;;;;;8.10;1.80;;;11.40;94.70;;;;;;10119459;28;20270;-64
2023/12/29 06:27:12;;;;;;;5.32;1.73;;;11.40;94.40;;;;;;10138706;28;20479;-66
2023/12/29 06:32:17;;;;;;;6.05;1.50;;;11.30;94.50;;;;;;10144114;28;22220;-63
2023/12/29 06:37:32;;;;;;;6.10;1.48;;;11.40;94.40;;;;;;10088483;28;20680;-66
2023/12/29 06:42:39;;;;;;;8.93;1.95;;;11.40;94.30;;;;;;10142247;28;20632;-64
2023/12/29 06:47:44;;;;;;;6.37;1.80;;;11.40;94.30;;;;;;10159694;28;20461;-66
2023/12/29 06:52:51;;;;;;;8.80;2.15;;;11.40;94.40;;;;;;10131834;28;20274;-66
2023/12/29 06:58:23;;;;;;;5.07;1.30;;;11.40;94.60;;;;;;10132686;28;20681;-64
2023/12/29 07:03:27;;;;;;;5.10;1.65;;;11.40;94.30;;;;;;10144874;28;20240;-64
2023/12/29 07:08:39;;;;;;;8.15;2.10;;;11.40;94.20;;;;;;10125218;28;20491;-68
2023/12/29 07:13:53;;;;;;;6.47;1.38;;;11.40;94.30;;;;;;10160328;28;20298;-65
2023/12/29 07:18:57;;;;;;;5.47;1.97;;;11.50;94.80;;;;;;10155155;28;20232;-65
2023/12/29 07:24:31;;;;;;;5.57;1.80;;;11.40;94.50;;;;;;10206304;28;20593;-64
2023/12/29 07:30:02;;;;;;;5.33;1.60;;;11.50;95.00;;;;;;10071175;28;20756;-67
2023/12/29 07:35:08;;;;;;;6.95;1.50;;;11.40;95.10;;;;;;10065504;28;20977;-67
2023/12/29 07:40:31;;;;;;;8.15;1.85;;;11.30;95.90;;;;;;10068091;28;20727;-66
2023/12/29 07:45:38;;;;;;;5.95;1.63;;;11.30;96.20;;;;;;10067850;28;20966;-69
2023/12/29 07:50:42;;;;;;;6.75;1.92;;;11.20;96.40;;;;;;10112260;28;20342;-66
2023/12/29 07:55:49;;;;;;;8.43;2.38;;;11.20;96.60;;;;;;10042896;28;25248;-65
2023/12/29 08:00:54;;;;;;;16.05;3.42;;;11.10;96.90;;;;;;10009724;28;20339;-65
2023/12/29 08:06:04;;;;;;;10.20;3.17;;;11.10;96.90;;;;;;10120819;28;20896;-66
2023/12/29 08:11:18;;;;;;;5.75;1.58;;;11.00;96.90;;;;;;10113159;28;20304;-68
2023/12/29 08:16:33;;;;;;;6.20;2.20;;;11.00;97.10;;;;;;10104608;28;20679;-66
2023/12/29 08:21:47;;;;;;;5.43;1.58;;;11.00;97.10;;;;;;10092798;28;20274;-64
2023/12/29 08:26:59;;;;;;;11.15;2.20;;;11.00;97.60;;;;;;10110532;28;20699;-64
2023/12/29 08:32:05;;;;;;;6.10;1.60;;;11.00;97.30;;;;;;10095216;28;21257;-65
2023/12/29 08:37:19;;;;;;;4.68;1.15;;;11.00;97.80;;;;;;8642081;28;26013921;-64
2023/12/29 08:42:29;;;;;;;6.13;1.73;;;11.00;97.90;;;;;;9641013;28;5107494;-65
2023/12/29 08:47:39;;;;;;;5.88;1.67;;;11.00;98.20;;;;;;9988307;28;20341;-65
2023/12/29 08:52:59;;;;;;;5.27;1.33;;;11.10;98.00;;;;;;10014056;28;20316;-66
2023/12/29 08:58:09;;;;;;;3.20;1.20;;;11.00;98.00;;;;;;10068318;28;20368;-63
2023/12/29 09:03:25;;;;;;;4.93;1.60;;;11.10;98.10;;;;;;9941083;28;20689;-65
2023/12/29 09:08:49;;;;;;;3.80;1.13;;;11.00;98.10;;;;;;10031270;28;23318;-66
2023/12/29 09:14:00;;;;;;;5.57;1.87;;;11.00;98.00;;;;;;9879078;28;20237;-67
2023/12/29 09:19:30;;;;;;;4.20;0.95;;;11.10;98.30;;;;;;9920694;28;20369;-66
2023/12/29 09:24:52;;;;;;;4.22;0.95;;;11.10;98.10;;;;;;10000887;28;20295;-67
2023/12/29 09:30:00;;;;;;;4.93;1.10;;;11.10;98.10;;;;;;9912376;28;20270;-66
2023/12/29 09:35:28;;;;;;;3.40;1.30;;;11.10;98.10;;;;;;9929502;28;20234;-67
2023/12/29 09:40:37;;;;;;;4.43;0.90;;;11.10;98.30;;;;;;9989848;28;20264;-65
2023/12/29 09:45:46;;;;;;;3.15;1.02;;;11.20;98.50;;;;;;9971588;28;20325;-66
2023/12/29 09:51:05;;;;;;;1.55;0.63;;;11.20;98.50;;;;;;10006336;28;20314;-64
2023/12/29 09:56:14;;;;;;;2.10;0.60;;;11.20;98.60;;;;;;10355198;23;20222;-62
2023/12/29 10:01:19;;;;;;;1.20;0.60;;;11.20;98.60;;;;;;10268851;28;20199;-62
2023/12/29 10:06:26;;;;;;;0.82;0.47;;;11.20;98.50;;;;;;10276577;28;20222;-61
2023/12/29 10:11:31;;;;;;;1.83;0.60;;;11.20;98.80;;;;;;10274653;28;20758;-62
2023/12/29 10:16:43;;;;;;;1.30;0.80;;;11.20;98.90;;;;;;10286304;28;20312;-62
2023/12/29 10:21:56;;;;;;;2.80;0.80;;;11.20;99.10;;;;;;10280251;28;20196;-62
2023/12/29 10:27:00;;;;;;;2.08;0.50;;;11.20;99.30;;;;;;10260670;28;20773;-62
2023/12/29 10:32:04;;;;;;;0.27;0.27;;;11.10;99.30;;;;;;10271294;28;20227;-61
2023/12/29 10:37:13;;;;;;;0.83;0.50;;;11.10;99.30;;;;;;10301000;28;20257;-62
2023/12/29 10:42:18;;;;;;;3.78;1.00;;;11.20;99.60;;;;;;10307706;28;20198;-63
2023/12/29 10:47:25;;;;;;;1.40;0.40;;;11.20;99.70;;;;;;10305779;28;20205;-62
2023/12/29 10:52:30;;;;;;;1.40;0.82;;;11.20;99.90;;;;;;10305674;28;20616;-63
2023/12/29 10:57:33;;;;;;;1.50;0.80;;;11.20;99.90;;;;;;10306885;28;20672;-63
2023/12/29 11:02:37;;;;;;;2.53;0.80;;;11.20;99.90;;;;;;10308919;28;20193;-63
2023/12/29 11:07:42;;;;;;;2.33;0.52;;;11.20;99.90;;;;;;10309968;28;20615;-62
2023/12/29 11:12:47;;;;;;;3.13;0.82;;;11.30;99.90;;;;;;10305761;28;20225;-63
2023/12/29 11:17:52;;;;;;;1.60;0.80;;;11.40;99.50;;;;;;10310827;28;20210;-62
2023/12/29 11:22:57;;;;;;;2.67;0.90;;;11.50;99.50;;;;;;10307710;28;20292;-63
2023/12/29 11:28:01;;;;;;;1.15;0.65;;;11.60;99.10;;;;;;10309337;28;20678;-63
2023/12/29 11:33:11;;;;;;;1.58;0.65;;;11.60;99.20;;;;;;10306833;28;20280;-63
2023/12/29 11:38:29;;;;;;;4.53;1.50;;;11.70;99.30;;;;;;10319402;28;20201;-61
2023/12/29 11:43:33;;;;;;;2.35;0.70;;;11.70;99.40;;;;;;10315560;28;20884;-64
2023/12/29 11:48:56;;;;;;;5.07;1.77;;;11.80;99.50;;;;;;10316281;28;20225;-61
2023/12/29 11:54:03;;;;;;;2.13;1.00;;;11.80;99.80;;;;;;10320587;28;20233;-64
2023/12/29 11:59:16;;;;;;;2.67;1.20;;;11.80;99.80;;;;;;10331629;28;20202;-60
2023/12/29 12:04:37;;;;;;;3.60;1.38;;;11.80;99.60;;;;;;10304346;28;20222;-63
2023/12/29 12:09:42;;;;;;;3.85;1.20;;;11.80;99.30;;;;;;10313950;28;20205;-62
2023/12/29 12:14:49;;;;;;;1.90;1.00;;;11.80;99.20;;;;;;10323893;28;20922;-61
2023/12/29 12:19:53;;;;;;;2.63;1.00;;;11.90;99.00;;;;;;10317166;28;20256;-60
2023/12/29 12:24:59;;;;;;;3.03;0.95;;;11.90;99.00;;;;;;10315779;28;20217;-61
2023/12/29 12:30:03;;;;;;;2.58;1.10;;;11.90;98.90;;;;;;10316388;28;20588;-61
2023/12/29 12:35:16;;;;;;;3.97;1.00;;;11.90;99.10;;;;;;10319830;28;20234;-60
2023/12/29 12:40:28;;;;;;;3.80;1.13;;;11.80;99.20;;;;;;10311802;28;20206;-62
2023/12/29 12:45:36;;;;;;;3.47;1.10;;;11.80;99.50;;;;;;10308786;28;20226;-63
2023/12/29 12:50:52;;;;;;;1.97;1.10;;;11.80;99.30;;;;;;10319028;28;20559;-63
2023/12/29 12:55:58;;;;;;;3.15;1.10;;;11.80;98.90;;;;;;10314297;28;20279;-63
2023/12/29 13:01:02;;;;;;;3.63;1.58;;;11.80;99.00;;;;;;10319074;28;20240;-62
2023/12/29 13:06:07;;;;;;;2.78;1.35;;;11.70;99.20;;;;;;10316471;28;20226;-63
2023/12/29 13:11:13;;;;;;;4.47;1.25;;;11.70;99.90;;;;;;10308959;28;20202;-62
2023/12/29 13:16:17;;;;;;;3.60;1.02;;;11.60;99.90;;;;;;10308686;28;20226;-62
2023/12/29 13:21:20;;;;;;;2.92;1.20;;;11.50;99.90;;;;;;10316236;28;20194;-62
2023/12/29 13:26:26;;;;;;;4.07;1.35;;;11.50;99.90;;;;;;10324493;28;20225;-63
2023/12/29 13:31:30;;;;;;;5.23;1.37;;;11.50;99.90;;;;;;10306316;28;20698;-62
2023/12/29 13:36:38;;;;;;;1.88;1.17;;;11.40;99.90;;;;;;10306693;28;20256;-62
2023/12/29 13:41:44;;;;;;;5.68;1.65;;;11.40;99.90;;;;;;10309645;28;20206;-63
2023/12/29 13:46:49;;;;;;;3.40;1.37;;;11.40;99.90;;;;;;10309902;28;20267;-62
2023/12/29 13:51:53;;;;;;;5.28;1.88;;;11.40;99.90;;;;;;10307324;28;20234;-63
2023/12/29 13:56:58;;;;;;;3.05;1.20;;;11.40;99.90;;;;;;10315024;28;20293;-63
2023/12/29 14:02:19;;;;;;;2.90;1.10;;;11.40;99.90;;;;;;10314332;28;20265;-64
2023/12/29 14:07:26;;;;;;;4.72;1.60;;;11.40;99.90;;;;;;10305789;28;20332;-62
2023/12/29 14:12:31;;;;;;;3.50;1.38;;;11.40;99.90;;;;;;10314863;28;20233;-63
2023/12/29 14:17:35;;;;;;;4.00;1.30;;;11.40;99.90;;;;;;10306852;28;20682;-64
2023/12/29 14:22:39;;;;;;;2.70;1.50;;;11.40;99.90;;;;;;10320536;28;20260;-61
2023/12/29 14:27:52;;;;;;;4.53;1.50;;;11.40;99.90;;;;;;10312021;28;20269;-61
2023/12/29 14:32:56;;;;;;;2.40;1.40;;;11.50;99.90;;;;;;10306688;28;20230;-61
2023/12/29 14:37:59;;;;;;;3.42;1.20;;;11.50;99.90;;;;;;10312314;28;20202;-62
2023/12/29 14:43:05;;;;;;;3.55;1.00;;;11.50;99.90;;;;;;10305033;28;20225;-63
2023/12/29 14:48:08;;;;;;;6.47;1.17;;;11.50;99.90;;;;;;10312706;28;20191;-61
2023/12/29 14:53:12;;;;;;;1.95;0.98;;;11.50;99.90;;;;;;10296271;28;20879;-62
2023/12/29 14:58:18;;;;;;;3.97;1.40;;;11.60;99.90;;;;;;10307133;28;20272;-62
2023/12/29 15:03:23;;;;;;;2.25;0.93;;;11.50;99.90;;;;;;10308714;28;20213;-60
2023/12/29 15:08:34;;;;;;;2.80;1.10;;;11.50;99.90;;;;;;10310710;28;20209;-62
2023/12/29 15:13:39;;;;;;;3.22;1.38;;;11.50;99.90;;;;;;10310305;28;20265;-63
2023/12/29 15:18:42;;;;;;;2.70;0.80;;;11.50;99.90;;;;;;10308867;28;20202;-62
2023/12/29 15:23:46;;;;;;;3.40;1.30;;;11.50;99.90;;;;;;10308619;28;20217;-63
2023/12/29 15:28:52;;;;;;;2.92;0.90;;;11.50;99.90;;;;;;10313504;28;20291;-63
2023/12/29 15:33:56;;;;;;;2.53;0.80;;;11.50;99.90;;;;;;10314236;28;20218;-62
2023/12/29 15:39:00;;;;;;;4.10;1.30;;;11.40;99.90;;;;;;10311171;28;20304;-62
2023/12/29 15:44:07;;;;;;;0.95;0.52;;;11.40;99.90;;;;;;10308141;28;20643;-61
2023/12/29 15:49:11;;;;;;;1.33;0.70;;;11.40;99.90;;;;;;10307921;28;20228;-64
2023/12/29 15:54:15;;;;;;;3.63;0.77;;;11.30;99.90;;;;;;10312453;28;20291;-61
2023/12/29 15:59:19;;;;;;;1.67;0.70;;;11.30;99.90;;;;;;10298928;28;20202;-63
2023/12/29 16:04:23;;;;;;;4.20;1.30;;;11.20;99.90;;;;;;10305009;28;20293;-62
2023/12/29 16:09:27;;;;;;;3.00;1.25;;;11.20;99.90;;;;;;10313865;28;20345;-61
2023/12/29 16:14:32;;;;;;;1.47;1.10;;;11.10;99.90;;;;;;10311838;28;20444;-63
2023/12/29 16:19:36;;;;;;;3.00;1.53;;;11.10;99.90;;;;;;10316035;28;20437;-65
2023/12/29 16:24:40;;;;;;;2.35;1.27;;;11.10;99.90;;;;;;10318633;28;20218;-64
2023/12/29 16:29:45;;;;;;;3.53;1.30;;;11.10;99.90;;;;;;10314388;28;20804;-64
2023/12/29 16:34:48;;;;;;;3.97;1.27;;;11.10;99.90;;;;;;10270699;28;66538;-64
2023/12/29 16:39:53;;;;;;;2.65;1.48;;;11.20;99.90;;;;;;10331125;28;20206;-63
2023/12/29 16:45:00;;;;;;;1.37;1.00;;;11.10;99.90;;;;;;10317877;28;20590;-64
2023/12/29 16:50:06;;;;;;;2.70;1.20;;;11.10;99.90;;;;;;10312851;28;20202;-61
2023/12/29 16:55:09;;;;;;;2.37;1.10;;;11.10;99.90;;;;;;10319810;28;20241;-64
2023/12/29 17:00:15;;;;;;;5.75;2.97;;;11.00;99.90;;;;;;10320190;28;20217;-64
2023/12/29 17:05:19;;;;;;;1.55;1.02;;;11.00;99.90;;;;;;10308408;28;20214;-65
2023/12/29 17:10:22;;;;;;;1.95;0.93;;;11.00;99.90;;;;;;10266752;28;20713;-64
2023/12/29 17:15:27;;;;;;;3.63;1.52;;;11.00;99.90;;;;;;10212040;28;466614;-64
2023/12/29 17:20:31;;;;;;;2.65;1.83;;;11.00;99.90;;;;;;10310176;28;20824;-62
2023/12/29 17:25:34;;;;;;;2.30;1.40;;;11.00;99.90;;;;;;10318192;28;20217;-64
2023/12/29 17:30:53;;;;;;;1.77;1.42;;;11.00;99.90;;;;;;10312103;28;21811;-63
2023/12/29 17:35:57;;;;;;;2.92;1.45;;;11.10;99.90;;;;;;10313851;28;20284;-63
2023/12/29 17:41:03;;;;;;;3.72;1.50;;;11.10;99.90;;;;;;10316187;28;20202;-63
2023/12/29 17:46:08;;;;;;;1.90;1.58;;;11.00;99.90;;;;;;10306909;28;20792;-64
2023/12/29 17:51:12;;;;;;;2.63;1.90;;;11.10;99.90;;;;;;10315922;28;20226;-63
2023/12/29 17:56:15;;;;;;;4.93;2.15;;;11.10;99.90;;;;;;10321310;28;20233;-63
2023/12/29 18:01:20;;;;;;;3.67;1.95;;;11.10;99.90;;;;;;10317264;28;20210;-65
2023/12/29 18:06:24;;;;;;;4.95;2.03;;;11.10;99.90;;;;;;10312473;28;20983;-64
2023/12/29 18:11:30;;;;;;;5.18;2.13;;;11.10;99.90;;;;;;10302032;28;20220;-64
2023/12/29 18:16:35;;;;;;;4.90;2.00;;;11.20;99.90;;;;;;10312751;28;20252;-64
2023/12/29 18:21:39;;;;;;;3.40;1.77;;;11.20;99.90;;;;;;10287379;28;20218;-63
2023/12/29 18:26:43;;;;;;;4.15;2.03;;;11.20;99.90;;;;;;10316584;28;20218;-64
2023/12/29 18:31:48;;;;;;;3.65;1.48;;;11.20;99.90;;;;;;10307389;28;20203;-64
2023/12/29 18:37:12;;;;;;;3.45;1.30;;;11.20;99.90;;;;;;10322598;28;20225;-63
2023/12/29 18:42:15;;;;;;;3.72;1.85;;;11.30;99.90;;;;;;10315963;28;20210;-64
2023/12/29 18:47:20;;;;;;;6.95;1.85;;;11.30;99.90;;;;;;10314468;28;20634;-63
2023/12/29 18:52:24;;;;;;;4.60;2.00;;;11.30;99.90;;;;;;10306776;28;20220;-63
2023/12/29 18:57:27;;;;;;;5.88;1.88;;;11.30;99.90;;;;;;10303915;28;20249;-64
2023/12/29 19:02:33;;;;;;;3.33;1.40;;;11.30;99.90;;;;;;10314502;28;20317;-64
2023/12/29 19:07:36;;;;;;;5.35;1.88;;;11.30;99.90;;;;;;10314583;28;20206;-64
2023/12/29 19:12:40;;;;;;;5.72;1.67;;;11.30;99.90;;;;;;10313831;28;20201;-64
2023/12/29 19:17:45;;;;;;;5.05;1.83;;;11.40;99.90;;;;;;10317694;28;20763;-62
2023/12/29 19:22:49;;;;;;;5.18;1.38;;;11.30;99.90;;;;;;10304342;28;20283;-64
2023/12/29 19:27:54;;;;;;;3.17;1.70;;;11.40;99.90;;;;;;10313848;28;20256;-64
2023/12/29 19:33:00;;;;;;;5.97;1.50;;;11.40;99.90;;;;;;10305895;28;20279;-63
2023/12/29 19:38:04;;;;;;;6.05;2.00;;;11.30;99.90;;;;;;10304443;28;20293;-65
2023/12/29 19:43:09;;;;;;;6.15;1.88;;;11.30;99.90;;;;;;10312062;28;20705;-64
2023/12/29 19:48:14;;;;;;;6.07;1.92;;;11.30;99.90;;;;;;10313499;28;20225;-62
2023/12/29 19:53:19;;;;;;;8.55;2.42;;;11.20;99.90;;;;;;10310864;28;20592;-63
2023/12/29 19:58:23;;;;;;;4.35;1.30;;;11.30;99.90;;;;;;10316147;28;20607;-62
2023/12/29 20:03:31;;;;;;;5.83;1.30;;;11.00;99.60;;;;;;10315548;28;20225;-61
2023/12/29 20:08:34;;;;;;;4.73;1.33;;;10.70;99.90;;;;;;10318075;28;20272;-63
2023/12/29 20:13:38;;;;;;;3.60;0.98;;;10.40;99.70;;;;;;10320451;28;20287;-65
2023/12/29 20:18:43;;;;;;;1.52;0.90;;;10.20;99.90;;;;;;10314967;28;20234;-65
2023/12/29 20:23:47;;;;;;;11.57;2.73;;;10.00;99.90;;;;;;10313134;28;20229;-65
2023/12/29 20:28:53;;;;;;;3.27;1.00;;;9.90;99.90;;;;;;10309338;28;20198;-64
2023/12/29 20:33:59;;;;;;;4.27;1.50;;;9.80;99.90;;;;;;10319159;28;20286;-63
2023/12/29 20:39:03;;;;;;;5.57;1.95;;;9.70;99.90;;;;;;10319317;28;20222;-63
2023/12/29 20:44:07;;;;;;;4.97;1.50;;;9.70;99.90;;;;;;10308456;28;20218;-63
2023/12/29 20:49:12;;;;;;;4.30;1.70;;;9.60;99.90;;;;;;10320223;28;20612;-61
2023/12/29 20:54:16;;;;;;;8.13;2.40;;;9.60;99.90;;;;;;10324169;28;20288;-63
2023/12/29 20:59:19;;;;;;;6.70;2.57;;;9.60;99.90;;;;;;10313725;28;20257;-63
2023/12/29 21:04:24;;;;;;;11.50;2.93;;;9.70;99.90;;;;;;10310629;28;20250;-62
2023/12/29 21:09:28;;;;;;;12.90;2.47;;;9.70;99.90;;;;;;10317267;28;20198;-63
2023/12/29 21:14:33;;;;;;;16.97;5.17;;;9.80;99.90;;;;;;10317987;28;20693;-63
2023/12/29 21:19:38;;;;;;;20.57;6.00;;;9.80;99.90;;;;;;10312214;28;20284;-62
2023/12/29 21:24:41;;;;;;;12.57;3.43;;;9.90;99.90;;;;;;10322659;28;20221;-60
2023/12/29 21:29:53;;;;;;;7.80;2.30;;;9.90;99.90;;;;;;10315474;28;20197;-61
2023/12/29 21:34:58;;;;;;;11.33;2.90;;;10.00;99.90;;;;;;10316729;28;20257;-62
2023/12/29 21:40:02;;;;;;;8.50;2.40;;;10.10;99.90;;;;;;10320265;28;20288;-64
2023/12/29 21:45:09;;;;;;;8.87;3.00;;;10.10;99.90;;;;;;10314495;28;20222;-62
2023/12/29 21:50:15;;;;;;;13.07;3.80;;;10.20;99.90;;;;;;10311640;28;20197;-63
2023/12/29 21:55:20;;;;;;;10.67;2.83;;;10.30;99.90;;;;;;10316709;28;20229;-63
2023/12/29 22:00:24;;;;;;;10.23;2.35;;;10.30;99.90;;;;;;10316940;28;20229;-61
2023/12/29 22:05:29;;;;;;;10.53;2.47;;;10.30;99.90;;;;;;10308610;28;20218;-62
2023/12/29 22:10:33;;;;;;;8.40;2.00;;;10.40;99.90;;;;;;10322112;28;20221;-61
2023/12/29 22:15:37;;;;;;;17.17;4.47;;;10.40;99.90;;;;;;10312371;28;20291;-63
2023/12/29 22:20:42;;;;;;;10.17;2.50;;;10.40;99.90;;;;;;10312540;28;20256;-62
2023/12/29 22:25:47;;;;;;;12.90;3.25;;;10.50;99.90;;;;;;10309903;28;20272;-61
2023/12/29 22:30:51;;;;;;;8.43;2.67;;;10.50;99.90;;;;;;10312313;28;20197;-63
2023/12/29 22:35:56;;;;;;;7.43;2.65;;;10.50;99.90;;;;;;10316265;28;20291;-63
2023/12/29 22:41:00;;;;;;;10.37;2.60;;;10.50;99.90;;;;;;10313224;28;20288;-63
2023/12/29 22:46:04;;;;;;;12.05;2.95;;;10.50;99.90;;;;;;10304334;28;20728;-61
2023/12/29 22:51:10;;;;;;;10.27;2.43;;;10.50;99.90;;;;;;10306175;28;20229;-62
2023/12/29 22:56:14;;;;;;;12.70;3.23;;;10.50;99.90;;;;;;10317158;28;20222;-64
2023/12/29 23:01:18;;;;;;;12.70;3.03;;;10.50;99.90;;;;;;10307479;28;20267;-64
2023/12/29 23:06:23;;;;;;;9.63;2.77;;;10.50;99.90;;;;;;10309792;28;20221;-63
2023/12/29 23:11:27;;;;;;;12.32;2.67;;;10.50;99.90;;;;;;10313655;28;20223;-64
2023/12/29 23:16:34;;;;;;;16.37;3.30;;;10.50;99.90;;;;;;10309977;28;20630;-64
2023/12/29 23:21:39;;;;;;;11.77;2.93;;;10.50;99.90;;;;;;10308148;28;20203;-62
2023/12/29 23:26:43;;;;;;;9.60;2.83;;;10.50;99.90;;;;;;10305875;28;20272;-63
2023/12/29 23:31:48;;;;;;;10.67;2.90;;;10.50;99.90;;;;;;10305848;28;20716;-62
2023/12/29 23:36:54;;;;;;;16.10;3.90;;;10.50;99.90;;;;;;10305450;28;20595;-64
2023/12/29 23:41:57;;;;;;;13.77;3.83;;;10.50;99.90;;;;;;10313350;28;20275;-64
2023/12/29 23:47:01;;;;;;;8.13;2.67;;;10.50;99.90;;;;;;10311788;28;20702;-63
2023/12/29 23:52:06;;;;;;;9.10;2.50;;;10.50;99.90;;;;;;10308722;28;20675;-62
2023/12/29 23:57:10;;;;;;;6.03;2.20;;;10.50;99.90;;;;;;10310206;28;20225;-63
